createdAt,value
2022-08-27T00:01:08.994Z,100692.50
2022-08-27T00:03:39.091Z,100713.91
2022-08-27T00:06:05.367Z,100706.41
2022-08-27T00:08:33.134Z,100707.66
2022-08-27T00:10:59.396Z,100713.28
2022-08-27T00:13:25.644Z,100709.97
2022-08-27T00:15:51.895Z,100733.16
2022-08-27T00:18:22.431Z,100735.19
2022-08-27T00:20:48.898Z,100731.81
2022-08-27T00:23:15.143Z,100713.28
2022-08-27T00:25:41.396Z,100699.25
2022-08-27T00:28:07.636Z,100684.41
2022-08-27T00:30:33.881Z,100659.59
2022-08-27T00:33:00.144Z,100648.78
2022-08-27T00:35:26.380Z,100638.31
2022-08-27T00:37:52.642Z,100625.03
2022-08-27T00:40:19.842Z,100634.91
2022-08-27T00:42:46.178Z,100643.19
2022-08-27T00:45:14.297Z,100645.19
2022-08-27T00:47:42.659Z,100649.25
2022-08-27T00:50:10.565Z,100641.47
2022-08-27T00:52:40.397Z,100636.78
2022-08-27T00:55:13.746Z,100628.03
2022-08-27T00:57:40.671Z,100621.28
2022-08-27T01:00:07.891Z,100620.84
2022-08-27T01:02:34.313Z,100627.88
2022-08-27T01:05:00.515Z,100625.66
2022-08-27T01:07:28.589Z,100632.41
2022-08-27T01:09:55.038Z,100635.66
2022-08-27T01:12:21.284Z,100647.84
2022-08-27T01:14:47.925Z,100654.88
2022-08-27T01:17:14.194Z,100664.28
2022-08-27T01:19:44.657Z,100683.47
2022-08-27T01:22:26.043Z,100676.59
2022-08-27T01:24:52.889Z,100669.28
2022-08-27T01:27:20.082Z,100673.47
2022-08-27T01:29:46.614Z,100663.03
2022-08-27T01:32:17.098Z,100651.94
2022-08-27T01:34:43.348Z,100638.81
2022-08-27T01:37:11.066Z,100631.47
2022-08-27T01:39:37.402Z,100630.84
2022-08-27T01:42:04.967Z,100612.25
2022-08-27T01:44:40.671Z,100605.88
2022-08-27T01:47:06.922Z,100595.91
2022-08-27T01:49:33.204Z,100590.56
2022-08-27T01:51:59.458Z,100578.84
2022-08-27T01:54:25.689Z,100580.44
2022-08-27T01:56:51.932Z,100566.84
2022-08-27T01:59:18.174Z,100561.69
2022-08-27T02:01:44.453Z,100571.22
2022-08-27T02:04:10.733Z,100564.63
2022-08-27T02:06:36.964Z,100561.66
2022-08-27T02:09:03.548Z,100565.09
2022-08-27T02:11:29.796Z,100560.59
2022-08-27T02:13:56.048Z,100553.41
2022-08-27T02:16:22.341Z,100548.56
2022-08-27T02:18:48.603Z,100542.50
2022-08-27T02:21:14.832Z,100544.66
2022-08-27T02:23:41.091Z,100539.03
2022-08-27T02:26:07.349Z,100520.94
2022-08-27T02:28:36.617Z,100514.97
2022-08-27T02:31:03.003Z,100515.13
2022-08-27T02:33:29.288Z,100511.38
2022-08-27T02:35:55.521Z,100507.63
2022-08-27T02:38:21.765Z,100500.31
2022-08-27T02:40:51.105Z,100495.63
2022-08-27T02:43:25.284Z,100494.09
2022-08-27T02:45:51.821Z,100508.13
2022-08-27T02:48:18.064Z,100504.91
2022-08-27T02:50:44.296Z,100504.41
2022-08-27T02:53:10.536Z,100514.59
2022-08-27T02:55:37.076Z,100510.66
2022-08-27T02:58:03.440Z,100511.59
2022-08-27T03:00:29.736Z,100520.03
2022-08-27T03:02:56.413Z,100502.25
2022-08-27T03:05:23.011Z,100505.81
2022-08-27T03:07:49.373Z,100506.59
2022-08-27T03:10:16.034Z,100503.47
2022-08-27T03:12:42.308Z,100501.47
2022-08-27T03:15:09.569Z,100503.63
2022-08-27T03:17:35.949Z,100508.47
2022-08-27T03:20:02.195Z,100506.47
2022-08-27T03:22:28.458Z,100514.72
2022-08-27T03:24:54.704Z,100518.16
2022-08-27T03:27:21.065Z,100521.13
2022-08-27T03:29:47.316Z,100513.81
2022-08-27T03:32:13.570Z,100517.56
2022-08-27T03:34:39.806Z,100518.81
2022-08-27T03:37:06.055Z,100513.78
2022-08-27T03:39:32.297Z,100509.72
2022-08-27T03:41:58.536Z,100515.16
2022-08-27T03:44:24.772Z,100508.47
2022-08-27T03:46:51.328Z,100503.28
2022-08-27T03:49:20.311Z,100508.59
2022-08-27T03:51:47.184Z,100517.50
2022-08-27T03:54:13.420Z,100520.16
2022-08-27T03:56:39.646Z,100524.88
2022-08-27T03:59:06.229Z,100528.31
2022-08-27T04:01:32.617Z,100529.88
2022-08-27T04:03:58.879Z,100530.78
2022-08-27T04:06:25.119Z,100519.88
2022-08-27T04:08:51.368Z,100520.03
2022-08-27T04:11:17.597Z,100517.56
2022-08-27T04:13:43.832Z,100523.66
2022-08-27T04:16:10.141Z,100508.25
2022-08-27T04:18:36.416Z,100520.09
2022-08-27T04:21:09.945Z,100516.50
2022-08-27T04:23:36.193Z,100517.59
2022-08-27T04:26:05.686Z,100522.72
2022-08-27T04:28:36.433Z,100519.13
2022-08-27T04:31:04.617Z,100519.63
2022-08-27T04:33:30.874Z,100522.72
2022-08-27T04:36:00.221Z,100520.88
2022-08-27T04:38:26.478Z,100530.06
2022-08-27T04:40:52.704Z,100534.44
2022-08-27T04:43:19.218Z,100540.22
2022-08-27T04:45:45.879Z,100538.34
2022-08-27T04:48:12.879Z,100547.88
2022-08-27T04:50:40.550Z,100550.19
2022-08-27T04:53:06.804Z,100554.09
2022-08-27T04:55:33.028Z,100566.44
2022-08-27T04:57:59.280Z,100560.78
2022-08-27T05:00:25.515Z,100570.94
2022-08-27T05:02:51.759Z,100568.13
2022-08-27T05:05:18.030Z,100576.88
2022-08-27T05:07:44.290Z,100586.88
2022-08-27T05:10:10.536Z,100589.03
2022-08-27T05:12:36.789Z,100589.81
2022-08-27T05:15:03.101Z,100595.59
2022-08-27T05:17:29.374Z,100596.03
2022-08-27T05:19:55.609Z,100601.50
2022-08-27T05:22:21.856Z,100601.34
2022-08-27T05:24:50.519Z,100604.16
2022-08-27T05:27:16.861Z,100602.00
2022-08-27T05:29:43.125Z,100609.47
2022-08-27T05:32:09.378Z,100614.47
2022-08-27T05:34:35.626Z,100607.94
2022-08-27T05:37:01.860Z,100607.16
2022-08-27T05:39:28.109Z,100617.91
2022-08-27T05:41:56.365Z,100628.03
2022-08-27T05:44:40.973Z,100628.34
2022-08-27T05:47:08.029Z,100629.13
2022-08-27T05:49:34.278Z,100627.72
2022-08-27T05:52:00.520Z,100629.78
2022-08-27T05:54:26.763Z,100628.81
2022-08-27T05:56:53.001Z,100627.59
2022-08-27T05:59:19.245Z,100627.25
2022-08-27T06:01:46.618Z,100634.28
2022-08-27T06:04:18.224Z,100629.47
2022-08-27T06:06:44.599Z,100637.56
2022-08-27T06:09:11.451Z,100639.59
2022-08-27T06:11:37.773Z,100640.50
2022-08-27T06:14:04.385Z,100643.94
2022-08-27T06:16:30.616Z,100660.34
2022-08-27T06:18:56.864Z,100662.06
2022-08-27T06:21:24.777Z,100670.00
2022-08-27T06:23:51.467Z,100673.75
2022-08-27T06:26:18.296Z,100673.88
2022-08-27T06:28:44.539Z,100675.69
2022-08-27T06:31:12.023Z,100673.06
2022-08-27T06:33:38.927Z,100676.03
2022-08-27T06:36:05.739Z,100666.22
2022-08-27T06:38:32.293Z,100662.31
2022-08-27T06:40:58.530Z,100668.59
2022-08-27T06:43:25.261Z,100659.56
2022-08-27T06:45:51.700Z,100666.25
2022-08-27T06:48:18.082Z,100665.63
2022-08-27T06:50:44.384Z,100661.59
2022-08-27T06:53:10.701Z,100663.59
2022-08-27T06:55:40.700Z,100660.34
2022-08-27T06:58:07.021Z,100664.72
2022-08-27T07:00:33.293Z,100654.09
2022-08-27T07:02:59.571Z,100649.25
2022-08-27T07:05:26.036Z,100650.53
2022-08-27T07:07:52.280Z,100649.59
2022-08-27T07:10:18.532Z,100643.97
2022-08-27T07:12:44.770Z,100642.56
2022-08-27T07:15:11.155Z,100636.94
2022-08-27T07:17:37.401Z,100638.66
2022-08-27T07:20:04.540Z,100639.44
2022-08-27T07:22:30.783Z,100636.34
2022-08-27T07:24:57.023Z,100636.47
2022-08-27T07:27:23.256Z,100641.00
2022-08-27T07:29:49.501Z,100644.75
2022-08-27T07:32:15.738Z,100634.78
2022-08-27T07:34:41.979Z,100641.16
2022-08-27T07:37:08.230Z,100654.56
2022-08-27T07:39:34.477Z,100658.66
2022-08-27T07:42:00.727Z,100660.66
2022-08-27T07:44:31.100Z,100653.66
2022-08-27T07:47:00.967Z,100663.97
2022-08-27T07:49:27.573Z,100670.50
2022-08-27T07:51:53.818Z,100658.50
2022-08-27T07:54:20.675Z,100664.13
2022-08-27T07:56:54.945Z,100668.94
2022-08-27T07:59:22.215Z,100662.84
2022-08-27T08:01:50.612Z,100665.69
2022-08-27T08:04:20.084Z,100669.09
2022-08-27T08:06:46.789Z,100669.09
2022-08-27T08:09:13.024Z,100667.84
2022-08-27T08:11:39.257Z,100661.91
2022-08-27T08:14:05.497Z,100671.13
2022-08-27T08:16:31.970Z,100670.66
2022-08-27T08:18:58.275Z,100671.13
2022-08-27T08:21:24.510Z,100686.25
2022-08-27T08:23:50.766Z,100678.00
2022-08-27T08:26:17.009Z,100685.66
2022-08-27T08:28:43.267Z,100689.38
2022-08-27T08:31:09.537Z,100695.78
2022-08-27T08:33:35.910Z,100694.38
2022-08-27T08:36:09.158Z,100688.59
2022-08-27T08:38:35.404Z,100693.13
2022-08-27T08:41:01.631Z,100707.19
2022-08-27T08:43:41.518Z,100707.97
2022-08-27T08:46:13.327Z,100717.34
2022-08-27T08:48:40.245Z,100722.03
2022-08-27T08:51:25.310Z,100722.53
2022-08-27T08:53:57.496Z,100727.16
2022-08-27T08:56:42.404Z,100723.44
2022-08-27T08:59:09.330Z,100717.00
2022-08-27T09:01:35.653Z,100732.66
2022-08-27T09:04:02.921Z,100735.94
2022-08-27T09:06:34.144Z,100748.09
2022-08-27T09:09:03.647Z,100755.28
2022-08-27T09:11:35.429Z,100758.09
2022-08-27T09:14:02.244Z,100755.59
2022-08-27T09:16:28.548Z,100757.97
2022-08-27T09:18:54.854Z,100756.22
2022-08-27T09:21:28.065Z,100752.94
2022-08-27T09:24:00.468Z,100736.88
2022-08-27T09:26:27.138Z,100731.56
2022-08-27T09:28:57.263Z,100727.63
2022-08-27T09:31:23.583Z,100725.31
2022-08-27T09:33:56.566Z,100718.44
2022-08-27T09:36:24.008Z,100719.78
2022-08-27T09:38:58.024Z,100708.66
2022-08-27T09:41:25.808Z,100707.91
2022-08-27T09:43:58.966Z,100702.91
2022-08-27T09:46:26.963Z,100701.16
2022-08-27T09:48:53.603Z,100695.69
2022-08-27T09:51:21.886Z,100693.19
2022-08-27T09:53:53.357Z,100693.16
2022-08-27T09:56:22.643Z,100694.38
2022-08-27T09:59:02.538Z,100697.78
2022-08-27T10:01:29.901Z,100700.78
2022-08-27T10:04:06.609Z,100698.09
2022-08-27T10:06:32.892Z,100705.56
2022-08-27T10:09:09.935Z,100699.84
2022-08-27T10:11:37.517Z,100707.19
2022-08-27T10:14:05.700Z,100707.38
2022-08-27T10:16:50.834Z,100711.91
2022-08-27T10:19:21.138Z,100730.69
2022-08-27T10:21:55.725Z,100749.13
2022-08-27T10:24:21.914Z,100751.09
2022-08-27T10:26:51.380Z,100753.16
2022-08-27T10:29:31.294Z,100733.91
2022-08-27T10:32:04.348Z,100732.91
2022-08-27T10:34:39.883Z,100724.13
2022-08-27T10:37:12.697Z,100725.22
2022-08-27T10:39:46.422Z,100724.81
2022-08-27T10:42:12.614Z,100749.72
2022-08-27T10:44:50.827Z,100749.19
2022-08-27T10:47:23.161Z,100746.59
2022-08-27T10:49:49.421Z,100744.69
2022-08-27T10:52:20.859Z,100721.13
2022-08-27T10:54:48.385Z,100695.66
2022-08-27T10:57:55.263Z,100715.47
2022-08-27T11:00:23.567Z,100746.63
2022-08-27T11:02:49.749Z,100764.31
2022-08-27T11:05:17.780Z,100773.81
2022-08-27T11:07:46.007Z,100757.94
2022-08-27T11:10:17.209Z,100787.88
2022-08-27T11:12:47.839Z,100791.09
2022-08-27T11:15:15.828Z,100822.63
2022-08-27T11:17:43.724Z,100846.03
2022-08-27T11:20:16.988Z,100868.25
2022-08-27T11:22:50.874Z,100865.56
2022-08-27T11:25:36.057Z,100857.00
2022-08-27T11:28:02.443Z,100876.56
2022-08-27T11:30:31.189Z,100892.31
2022-08-27T11:33:00.578Z,100890.16
2022-08-27T11:35:34.665Z,100902.16
2022-08-27T11:38:12.233Z,100897.94
2022-08-27T11:40:41.709Z,100903.56
2022-08-27T11:43:09.008Z,100896.22
2022-08-27T11:45:36.350Z,100898.41
2022-08-27T11:48:03.003Z,100892.00
2022-08-27T11:50:29.864Z,100895.00
2022-08-27T11:53:05.588Z,100882.47
2022-08-27T11:55:32.614Z,100860.44
2022-08-27T11:58:04.144Z,100847.00
2022-08-27T12:00:31.514Z,100850.28
2022-08-27T12:02:57.735Z,100860.13
2022-08-27T12:05:26.776Z,100862.63
2022-08-27T12:07:53.249Z,100868.25
2022-08-27T12:10:22.440Z,100885.59
2022-08-27T12:13:01.382Z,100887.63
2022-08-27T12:16:00.369Z,100903.06
2022-08-27T12:18:45.227Z,100908.09
2022-08-27T12:21:40.714Z,100913.47
2022-08-27T12:24:06.899Z,100925.59
2022-08-27T12:26:38.097Z,100925.44
2022-08-27T12:29:24.005Z,100914.94
2022-08-27T12:31:51.379Z,100906.75
2022-08-27T12:34:19.062Z,100904.41
2022-08-27T12:36:50.990Z,100886.00
2022-08-27T12:39:20.555Z,100880.97
2022-08-27T12:41:47.400Z,100874.13
2022-08-27T12:44:14.823Z,100860.19
2022-08-27T12:46:45.879Z,100861.41
2022-08-27T12:49:36.920Z,100845.03
2022-08-27T12:51:58.455Z,100834.09
2022-08-27T12:54:28.962Z,100827.00
2022-08-27T12:57:11.785Z,100822.84
2022-08-27T12:59:57.110Z,100818.47
2022-08-27T13:02:35.613Z,100817.53
2022-08-27T13:05:02.786Z,100816.44
2022-08-27T13:07:32.883Z,100809.75
2022-08-27T13:10:13.286Z,100804.56
2022-08-27T13:12:39.707Z,100802.41
2022-08-27T13:15:06.994Z,100793.53
2022-08-27T13:17:36.414Z,100793.53
2022-08-27T13:20:03.021Z,100783.91
2022-08-27T13:22:30.178Z,100782.16
2022-08-27T13:24:56.404Z,100772.81
2022-08-27T13:27:26.265Z,100764.78
2022-08-27T13:29:52.496Z,100770.56
2022-08-27T13:32:18.754Z,100758.06
2022-08-27T13:34:44.994Z,100745.00
2022-08-27T13:37:23.511Z,100748.59
2022-08-27T13:39:51.847Z,100747.56
2022-08-27T13:42:20.198Z,100735.75
2022-08-27T13:44:48.364Z,100732.28
2022-08-27T13:47:14.635Z,100732.44
2022-08-27T13:49:40.881Z,100734.63
2022-08-27T13:52:27.663Z,100745.28
2022-08-27T13:55:14.975Z,100740.50
2022-08-27T13:57:41.178Z,100743.16
2022-08-27T14:00:08.560Z,100747.56
2022-08-27T14:02:35.007Z,100747.38
2022-08-27T14:05:06.493Z,100757.06
2022-08-27T14:07:33.950Z,100755.06
2022-08-27T14:10:05.357Z,100758.34
2022-08-27T14:12:33.268Z,100758.03
2022-08-27T14:15:00.583Z,100765.94
2022-08-27T14:17:30.229Z,100774.38
2022-08-27T14:20:00.078Z,100771.72
2022-08-27T14:22:26.999Z,100766.78
2022-08-27T14:24:53.254Z,100776.91
2022-08-27T14:27:19.488Z,100774.88
2022-08-27T14:29:46.428Z,100780.06
2022-08-27T14:32:12.680Z,100786.78
2022-08-27T14:34:38.911Z,100780.56
2022-08-27T14:37:05.147Z,100781.84
2022-08-27T14:39:31.493Z,100788.41
2022-08-27T14:41:57.736Z,100782.63
2022-08-27T14:44:24.070Z,100783.09
2022-08-27T14:46:50.921Z,100793.56
2022-08-27T14:49:22.182Z,100809.63
2022-08-27T14:51:48.429Z,100802.13
2022-08-27T14:54:14.665Z,100811.91
2022-08-27T14:56:40.918Z,100822.78
2022-08-27T14:59:07.155Z,100838.19
2022-08-27T15:01:33.457Z,100821.78
2022-08-27T15:04:00.666Z,100826.00
2022-08-27T15:06:26.923Z,100819.44
2022-08-27T15:08:53.851Z,100827.41
2022-08-27T15:11:21.434Z,100828.84
2022-08-27T15:13:47.671Z,100832.09
2022-08-27T15:16:14.964Z,100828.97
2022-08-27T15:18:41.216Z,100825.13
2022-08-27T15:21:07.456Z,100827.41
2022-08-27T15:23:33.704Z,100836.09
2022-08-27T15:25:59.944Z,100846.22
2022-08-27T15:28:26.197Z,100840.88
2022-08-27T15:30:52.475Z,100851.69
2022-08-27T15:33:18.738Z,100848.47
2022-08-27T15:35:46.692Z,100843.50
2022-08-27T15:38:13.118Z,100829.91
2022-08-27T15:40:39.614Z,100819.84
2022-08-27T15:43:06.167Z,100843.94
2022-08-27T15:45:32.624Z,100829.00
2022-08-27T15:47:59.093Z,100833.22
2022-08-27T15:50:25.429Z,100829.81
2022-08-27T15:52:51.744Z,100812.78
2022-08-27T15:55:19.723Z,100828.88
2022-08-27T15:57:45.978Z,100809.41
2022-08-27T16:00:12.407Z,100790.69
2022-08-27T16:02:38.713Z,100800.25
2022-08-27T16:05:05.148Z,100800.72
2022-08-27T16:07:31.408Z,100785.84
2022-08-27T16:09:57.799Z,100778.72
2022-08-27T16:12:27.316Z,100782.81
2022-08-27T16:14:53.792Z,100769.81
2022-08-27T16:17:20.033Z,100762.94
2022-08-27T16:19:46.274Z,100755.59
2022-08-27T16:22:12.521Z,100768.72
2022-08-27T16:24:38.766Z,100776.38
2022-08-27T16:27:05.027Z,100794.78
2022-08-27T16:29:31.264Z,100783.22
2022-08-27T16:32:01.154Z,100824.81
2022-08-27T16:34:27.856Z,100877.16
2022-08-27T16:36:54.713Z,100902.53
2022-08-27T16:39:20.957Z,100937.63
2022-08-27T16:41:47.204Z,100947.47
2022-08-27T16:44:13.694Z,100944.22
2022-08-27T16:46:39.993Z,100919.38
2022-08-27T16:49:06.278Z,100934.03
2022-08-27T16:51:33.187Z,100944.28
2022-08-27T16:54:01.707Z,100936.25
2022-08-27T16:56:28.600Z,100947.84
2022-08-27T16:58:54.963Z,100930.47
2022-08-27T17:01:21.533Z,100963.47
2022-08-27T17:06:35.436Z,100960.81
2022-08-27T17:09:05.807Z,100920.94
2022-08-27T17:11:32.067Z,100909.53
2022-08-27T17:13:59.054Z,100914.72
2022-08-27T17:16:25.851Z,100914.72
2022-08-27T17:18:52.289Z,100910.13
2022-08-27T17:21:18.982Z,100957.47
2022-08-27T17:23:46.044Z,100948.84
2022-08-27T17:26:12.694Z,100972.25
2022-08-27T17:28:38.937Z,100978.50
2022-08-27T17:31:05.376Z,100920.72
2022-08-27T17:33:34.049Z,100876.69
2022-08-27T17:36:00.296Z,100880.72
2022-08-27T17:38:26.561Z,100882.09
2022-08-27T17:40:53.181Z,100912.81
2022-08-27T17:43:21.359Z,100944.22
2022-08-27T17:45:51.443Z,100972.00
2022-08-27T17:48:19.282Z,101003.91
2022-08-27T17:50:45.952Z,100982.13
2022-08-27T17:53:12.190Z,101002.00
2022-08-27T17:55:38.438Z,100999.38
2022-08-27T17:58:04.899Z,100998.78
2022-08-27T18:00:31.158Z,100985.34
2022-08-27T18:02:57.392Z,100939.63
2022-08-27T18:05:24.082Z,100973.72
2022-08-27T18:07:50.461Z,100990.06
2022-08-27T18:10:18.133Z,101000.69
2022-08-27T18:15:28.738Z,100994.91
2022-08-27T18:17:56.866Z,100992.56
2022-08-27T18:20:23.985Z,100997.06
2022-08-27T18:22:51.197Z,100995.28
2022-08-27T18:25:17.985Z,101004.94
2022-08-27T18:27:44.282Z,100999.47
2022-08-27T18:30:10.817Z,101010.34
2022-08-27T18:32:37.202Z,101008.28
2022-08-27T18:35:04.820Z,100998.88
2022-08-27T18:37:31.073Z,101002.91
2022-08-27T18:39:57.368Z,101013.50
2022-08-27T18:42:23.670Z,101009.59
2022-08-27T18:44:49.923Z,101001.75
2022-08-27T18:47:16.183Z,101008.13
2022-08-27T18:49:42.436Z,101017.16
2022-08-27T18:52:08.732Z,101008.22
2022-08-27T18:54:34.983Z,101006.19
2022-08-27T18:57:01.237Z,101012.03
2022-08-27T18:59:27.483Z,101012.34
2022-08-27T19:01:54.401Z,101012.94
2022-08-27T19:04:20.833Z,101006.47
2022-08-27T19:06:47.093Z,101011.06
2022-08-27T19:09:13.353Z,101014.22
2022-08-27T19:11:39.600Z,101005.75
2022-08-27T19:14:05.892Z,101010.28
2022-08-27T19:16:45.648Z,101004.78
2022-08-27T19:19:12.454Z,101009.13
2022-08-27T19:21:38.722Z,101000.69
2022-08-27T19:24:05.302Z,100995.94
2022-08-27T19:26:31.558Z,101001.56
2022-08-27T19:28:57.809Z,101004.22
2022-08-27T19:31:24.209Z,101000.09
2022-08-27T19:33:50.482Z,100996.16
2022-08-27T19:36:16.927Z,100999.69
2022-08-27T19:38:43.221Z,101004.75
2022-08-27T19:41:09.461Z,101006.34
2022-08-27T19:43:35.705Z,101001.03
2022-08-27T19:46:02.221Z,100994.56
2022-08-27T19:48:30.839Z,100987.00
2022-08-27T19:50:57.088Z,100996.00
2022-08-27T19:53:23.629Z,100989.25
2022-08-27T19:55:49.865Z,100986.69
2022-08-27T19:58:17.363Z,100994.34
2022-08-27T20:00:43.846Z,100986.19
2022-08-27T20:03:10.169Z,100984.41
2022-08-27T20:05:36.498Z,100948.44
2022-08-27T20:08:03.027Z,100972.34
2022-08-27T20:10:36.187Z,100994.44
2022-08-27T20:13:03.015Z,100999.41
2022-08-27T20:15:29.271Z,100993.56
2022-08-27T20:17:55.535Z,100997.97
2022-08-27T20:20:22.406Z,100975.84
2022-08-27T20:22:48.653Z,100977.19
2022-08-27T20:25:14.915Z,100975.94
2022-08-27T20:27:41.313Z,100963.63
2022-08-27T20:30:08.051Z,100960.47
2022-08-27T20:32:34.310Z,100953.00
2022-08-27T20:35:00.556Z,100956.25
2022-08-27T20:37:26.846Z,100970.50
2022-08-27T20:39:53.190Z,100986.06
2022-08-27T20:42:19.684Z,100981.78
2022-08-27T20:44:46.038Z,100977.06
2022-08-27T20:47:12.292Z,100965.56
2022-08-27T20:49:38.537Z,100956.41
2022-08-27T20:52:10.955Z,100950.84
2022-08-27T20:54:37.878Z,100976.06
2022-08-27T20:57:04.135Z,100982.06
2022-08-27T20:59:30.401Z,100973.63
2022-08-27T21:01:56.688Z,100973.34
2022-08-27T21:04:23.006Z,100953.44
2022-08-27T21:06:49.250Z,100977.63
2022-08-27T21:09:15.503Z,101005.09
2022-08-27T21:11:41.749Z,101010.72
2022-08-27T21:14:08.001Z,100993.88
2022-08-27T21:16:34.573Z,100989.72
2022-08-27T21:19:00.877Z,100979.78
2022-08-27T21:21:27.121Z,100995.25
2022-08-27T21:23:53.361Z,100992.00
2022-08-27T21:26:19.623Z,100984.03
2022-08-27T21:28:45.870Z,100972.44
2022-08-27T21:31:12.178Z,100943.19
2022-08-27T21:33:39.681Z,100950.75
2022-08-27T21:36:10.016Z,100975.16
2022-08-27T21:38:38.145Z,100978.56
2022-08-27T21:41:04.417Z,100972.91
2022-08-27T21:43:30.673Z,100943.53
2022-08-27T21:45:56.914Z,100970.25
2022-08-27T21:48:23.178Z,100985.16
2022-08-27T21:50:52.957Z,100971.06
2022-08-27T21:53:19.719Z,100966.50
2022-08-27T21:55:46.008Z,100945.06
2022-08-27T21:58:12.419Z,100940.25
2022-08-27T22:00:45.531Z,100930.47
2022-08-27T22:03:12.982Z,100924.13
2022-08-27T22:05:39.641Z,100905.34
2022-08-27T22:08:07.186Z,100925.97
2022-08-27T22:10:33.467Z,100934.22
2022-08-27T22:13:00.125Z,100932.06
2022-08-27T22:15:26.553Z,100914.03
2022-08-27T22:17:52.802Z,100920.56
2022-08-27T22:20:19.045Z,100928.50
2022-08-27T22:22:45.289Z,100931.91
2022-08-27T22:25:11.520Z,100929.22
2022-08-27T22:27:37.786Z,100927.34
2022-08-27T22:30:06.490Z,100928.25
2022-08-27T22:32:35.906Z,100976.81
2022-08-27T22:35:02.151Z,100988.50
2022-08-27T22:37:28.410Z,100988.59
2022-08-27T22:39:54.800Z,100998.22
2022-08-27T22:42:21.263Z,101007.94
2022-08-27T22:44:47.507Z,100990.63
2022-08-27T22:47:13.774Z,101006.91
2022-08-27T22:49:40.291Z,100997.06
2022-08-27T22:52:06.545Z,100990.97
2022-08-27T22:54:32.788Z,100977.63
2022-08-27T22:56:59.049Z,100960.72
2022-08-27T22:59:25.287Z,100931.81
2022-08-27T23:01:53.661Z,100937.53
2022-08-27T23:04:20.049Z,100935.81
2022-08-27T23:06:47.032Z,100942.94
2022-08-27T23:09:13.287Z,100936.22
2022-08-27T23:11:39.537Z,100928.03
2022-08-27T23:14:05.814Z,100918.00
2022-08-27T23:16:32.093Z,100904.22
2022-08-27T23:18:58.381Z,100892.88
2022-08-27T23:21:24.633Z,100890.56
2022-08-27T23:23:50.892Z,100893.50
2022-08-27T23:26:17.145Z,100882.28
2022-08-27T23:28:43.531Z,100886.63
2022-08-27T23:31:09.851Z,100912.69
2022-08-27T23:33:36.140Z,100891.00
2022-08-27T23:36:02.474Z,100926.44
2022-08-27T23:38:28.893Z,100936.50
2022-08-27T23:40:55.139Z,100935.63
2022-08-27T23:43:21.414Z,100926.44
2022-08-27T23:45:47.684Z,100935.13
2022-08-27T23:48:14.119Z,100938.09
2022-08-27T23:50:40.536Z,100935.31
2022-08-27T23:53:06.821Z,100954.63
2022-08-27T23:55:33.069Z,100939.47
2022-08-27T23:57:59.623Z,100918.50
